sensor_id;sensor_type;location;lat;lon;timestamp;P1;durP1;ratioP1;P2;durP2;ratioP2
1020;SDS011;499;42.648;23.270;2023-04-25T00:01:08;2.57;;;1.60;;
1020;SDS011;499;42.648;23.270;2023-04-25T00:03:39;0.80;;;0.70;;
1020;SDS011;499;42.648;23.270;2023-04-25T00:06:06;2.57;;;1.50;;
1020;SDS011;499;42.648;23.270;2023-04-25T00:08:34;2.77;;;2.20;;
1020;SDS011;499;42.648;23.270;2023-04-25T00:11:01;1.53;;;1.13;;
1020;SDS011;499;42.648;23.270;2023-04-25T00:13:28;1.87;;;1.30;;
1020;SDS011;499;42.648;23.270;2023-04-25T00:15:55;1.10;;;0.80;;
1020;SDS011;499;42.648;23.270;2023-04-25T00:18:23;1.00;;;0.73;;
1020;SDS011;499;42.648;23.270;2023-04-25T00:20:51;1.00;;;0.77;;
1020;SDS011;499;42.648;23.270;2023-04-25T00:23:18;0.90;;;0.80;;
1020;SDS011;499;42.648;23.270;2023-04-25T00:25:46;0.80;;;0.60;;
1020;SDS011;499;42.648;23.270;2023-04-25T00:28:15;1.00;;;0.70;;
1020;SDS011;499;42.648;23.270;2023-04-25T00:30:42;0.80;;;0.60;;
1020;SDS011;499;42.648;23.270;2023-04-25T00:33:09;1.23;;;0.90;;
1020;SDS011;499;42.648;23.270;2023-04-25T00:35:36;1.10;;;0.90;;
1020;SDS011;499;42.648;23.270;2023-04-25T00:38:06;1.17;;;0.90;;
1020;SDS011;499;42.648;23.270;2023-04-25T00:40:33;1.17;;;0.90;;
1020;SDS011;499;42.648;23.270;2023-04-25T00:43:01;1.63;;;1.00;;
1020;SDS011;499;42.648;23.270;2023-04-25T00:45:28;1.03;;;0.93;;
1020;SDS011;499;42.648;23.270;2023-04-25T00:47:56;1.40;;;0.97;;
1020;SDS011;499;42.648;23.270;2023-04-25T00:50:23;2.37;;;1.37;;
1020;SDS011;499;42.648;23.270;2023-04-25T00:52:51;1.23;;;1.13;;
1020;SDS011;499;42.648;23.270;2023-04-25T00:55:20;1.17;;;1.00;;
1020;SDS011;499;42.648;23.270;2023-04-25T00:57:47;1.03;;;0.83;;
1020;SDS011;499;42.648;23.270;2023-04-25T01:00:15;1.17;;;1.07;;
1020;SDS011;499;42.648;23.270;2023-04-25T01:02:43;1.73;;;1.33;;
1020;SDS011;499;42.648;23.270;2023-04-25T01:05:11;1.17;;;0.97;;
1020;SDS011;499;42.648;23.270;2023-04-25T01:07:38;1.70;;;1.27;;
1020;SDS011;499;42.648;23.270;2023-04-25T01:10:06;1.40;;;1.13;;
1020;SDS011;499;42.648;23.270;2023-04-25T01:12:36;1.80;;;1.40;;
1020;SDS011;499;42.648;23.270;2023-04-25T01:15:04;1.57;;;1.47;;
1020;SDS011;499;42.648;23.270;2023-04-25T01:17:31;1.67;;;1.30;;
1020;SDS011;499;42.648;23.270;2023-04-25T01:20:03;2.20;;;1.93;;
1020;SDS011;499;42.648;23.270;2023-04-25T01:22:33;1.63;;;1.43;;
1020;SDS011;499;42.648;23.270;2023-04-25T01:25:01;1.43;;;1.33;;
1020;SDS011;499;42.648;23.270;2023-04-25T01:27:28;1.67;;;1.37;;
1020;SDS011;499;42.648;23.270;2023-04-25T01:29:56;2.17;;;1.13;;
1020;SDS011;499;42.648;23.270;2023-04-25T01:32:23;1.40;;;1.07;;
1020;SDS011;499;42.648;23.270;2023-04-25T01:34:51;1.20;;;0.97;;
1020;SDS011;499;42.648;23.270;2023-04-25T01:37:18;2.17;;;1.30;;
1020;SDS011;499;42.648;23.270;2023-04-25T01:39:47;1.30;;;1.03;;
1020;SDS011;499;42.648;23.270;2023-04-25T01:42:15;1.53;;;1.43;;
1020;SDS011;499;42.648;23.270;2023-04-25T01:44:42;1.73;;;1.33;;
1020;SDS011;499;42.648;23.270;2023-04-25T01:47:10;2.57;;;1.77;;
1020;SDS011;499;42.648;23.270;2023-04-25T01:49:37;2.20;;;1.37;;
1020;SDS011;499;42.648;23.270;2023-04-25T01:52:06;4.00;;;1.80;;
1020;SDS011;499;42.648;23.270;2023-04-25T01:54:34;2.20;;;1.70;;
1020;SDS011;499;42.648;23.270;2023-04-25T01:57:03;1.40;;;1.30;;
1020;SDS011;499;42.648;23.270;2023-04-25T01:59:30;1.90;;;1.20;;
1020;SDS011;499;42.648;23.270;2023-04-25T02:01:57;2.47;;;1.43;;
1020;SDS011;499;42.648;23.270;2023-04-25T02:04:24;2.47;;;1.90;;
1020;SDS011;499;42.648;23.270;2023-04-25T02:06:51;3.00;;;2.43;;
1020;SDS011;499;42.648;23.270;2023-04-25T02:09:18;2.20;;;1.63;;
1020;SDS011;499;42.648;23.270;2023-04-25T02:11:45;2.60;;;2.17;;
1020;SDS011;499;42.648;23.270;2023-04-25T02:14:13;2.20;;;1.90;;
1020;SDS011;499;42.648;23.270;2023-04-25T02:16:40;3.33;;;2.10;;
1020;SDS011;499;42.648;23.270;2023-04-25T02:19:08;2.07;;;1.87;;
1020;SDS011;499;42.648;23.270;2023-04-25T02:21:35;2.27;;;2.07;;
1020;SDS011;499;42.648;23.270;2023-04-25T02:24:03;1.60;;;1.27;;
1020;SDS011;499;42.648;23.270;2023-04-25T02:26:30;2.13;;;1.77;;
1020;SDS011;499;42.648;23.270;2023-04-25T02:28:57;2.67;;;2.47;;
1020;SDS011;499;42.648;23.270;2023-04-25T02:31:26;2.10;;;1.60;;
1020;SDS011;499;42.648;23.270;2023-04-25T02:33:53;2.50;;;2.10;;
1020;SDS011;499;42.648;23.270;2023-04-25T02:36:20;2.60;;;2.17;;
1020;SDS011;499;42.648;23.270;2023-04-25T02:38:47;1.70;;;1.60;;
1020;SDS011;499;42.648;23.270;2023-04-25T02:41:14;3.00;;;2.70;;
1020;SDS011;499;42.648;23.270;2023-04-25T02:43:41;2.43;;;1.70;;
1020;SDS011;499;42.648;23.270;2023-04-25T02:46:08;3.20;;;1.70;;
1020;SDS011;499;42.648;23.270;2023-04-25T02:48:36;2.63;;;2.13;;
1020;SDS011;499;42.648;23.270;2023-04-25T02:51:04;1.50;;;1.30;;
1020;SDS011;499;42.648;23.270;2023-04-25T02:53:31;3.80;;;2.50;;
1020;SDS011;499;42.648;23.270;2023-04-25T02:55:58;2.10;;;1.70;;
1020;SDS011;499;42.648;23.270;2023-04-25T02:58:25;3.03;;;2.83;;
1020;SDS011;499;42.648;23.270;2023-04-25T03:00:52;1.67;;;1.33;;
1020;SDS011;499;42.648;23.270;2023-04-25T03:03:19;2.27;;;2.03;;
1020;SDS011;499;42.648;23.270;2023-04-25T03:05:48;2.40;;;1.73;;
1020;SDS011;499;42.648;23.270;2023-04-25T03:08:15;2.30;;;2.03;;
1020;SDS011;499;42.648;23.270;2023-04-25T03:10:43;1.57;;;1.00;;
1020;SDS011;499;42.648;23.270;2023-04-25T03:13:10;2.03;;;1.60;;
1020;SDS011;499;42.648;23.270;2023-04-25T03:15:37;2.93;;;2.70;;
1020;SDS011;499;42.648;23.270;2023-04-25T03:18:04;2.40;;;1.60;;
1020;SDS011;499;42.648;23.270;2023-04-25T03:20:31;2.60;;;2.40;;
1020;SDS011;499;42.648;23.270;2023-04-25T03:23:00;3.30;;;2.87;;
1020;SDS011;499;42.648;23.270;2023-04-25T03:25:27;2.83;;;2.47;;
1020;SDS011;499;42.648;23.270;2023-04-25T03:27:54;4.50;;;2.57;;
1020;SDS011;499;42.648;23.270;2023-04-25T03:30:21;3.43;;;2.83;;
1020;SDS011;499;42.648;23.270;2023-04-25T03:32:48;2.97;;;1.80;;
1020;SDS011;499;42.648;23.270;2023-04-25T03:35:15;2.47;;;2.27;;
1020;SDS011;499;42.648;23.270;2023-04-25T03:37:42;2.60;;;1.90;;
1020;SDS011;499;42.648;23.270;2023-04-25T03:40:12;3.13;;;2.83;;
1020;SDS011;499;42.648;23.270;2023-04-25T03:42:39;2.03;;;1.83;;
1020;SDS011;499;42.648;23.270;2023-04-25T03:45:06;3.30;;;3.00;;
1020;SDS011;499;42.648;23.270;2023-04-25T03:47:34;3.47;;;2.87;;
1020;SDS011;499;42.648;23.270;2023-04-25T03:50:01;2.13;;;2.00;;
1020;SDS011;499;42.648;23.270;2023-04-25T03:52:28;3.10;;;1.90;;
1020;SDS011;499;42.648;23.270;2023-04-25T03:54:55;3.23;;;2.37;;
1020;SDS011;499;42.648;23.270;2023-04-25T03:57:24;2.73;;;1.73;;
1020;SDS011;499;42.648;23.270;2023-04-25T03:59:51;3.43;;;2.47;;
1020;SDS011;499;42.648;23.270;2023-04-25T04:02:18;1.97;;;1.43;;
1020;SDS011;499;42.648;23.270;2023-04-25T04:04:45;1.87;;;1.33;;
1020;SDS011;499;42.648;23.270;2023-04-25T04:07:12;2.90;;;1.90;;
1020;SDS011;499;42.648;23.270;2023-04-25T04:09:39;2.07;;;1.83;;
1020;SDS011;499;42.648;23.270;2023-04-25T04:12:07;2.57;;;2.10;;
1020;SDS011;499;42.648;23.270;2023-04-25T04:14:35;2.93;;;2.63;;
1020;SDS011;499;42.648;23.270;2023-04-25T04:17:02;1.60;;;1.50;;
1020;SDS011;499;42.648;23.270;2023-04-25T04:19:31;1.30;;;1.20;;
1020;SDS011;499;42.648;23.270;2023-04-25T04:21:58;3.27;;;2.97;;
1020;SDS011;499;42.648;23.270;2023-04-25T04:24:25;3.67;;;2.50;;
1020;SDS011;499;42.648;23.270;2023-04-25T04:26:52;3.57;;;2.70;;
1020;SDS011;499;42.648;23.270;2023-04-25T04:29:19;3.00;;;2.00;;
1020;SDS011;499;42.648;23.270;2023-04-25T04:31:48;3.00;;;1.90;;
1020;SDS011;499;42.648;23.270;2023-04-25T04:34:16;3.20;;;1.80;;
1020;SDS011;499;42.648;23.270;2023-04-25T04:36:44;3.60;;;1.90;;
1020;SDS011;499;42.648;23.270;2023-04-25T04:39:11;2.50;;;2.30;;
1020;SDS011;499;42.648;23.270;2023-04-25T04:41:38;2.23;;;1.87;;
1020;SDS011;499;42.648;23.270;2023-04-25T04:44:05;2.17;;;1.70;;
1020;SDS011;499;42.648;23.270;2023-04-25T04:46:34;1.53;;;1.30;;
1020;SDS011;499;42.648;23.270;2023-04-25T04:49:07;2.50;;;1.53;;
1020;SDS011;499;42.648;23.270;2023-04-25T04:51:34;1.70;;;1.53;;
1020;SDS011;499;42.648;23.270;2023-04-25T04:54:01;1.27;;;1.03;;
1020;SDS011;499;42.648;23.270;2023-04-25T04:56:29;2.20;;;1.60;;
1020;SDS011;499;42.648;23.270;2023-04-25T04:58:56;1.47;;;1.03;;
1020;SDS011;499;42.648;23.270;2023-04-25T05:01:24;1.40;;;1.30;;
1020;SDS011;499;42.648;23.270;2023-04-25T05:03:51;2.90;;;2.50;;
1020;SDS011;499;42.648;23.270;2023-04-25T05:06:19;2.97;;;2.60;;
1020;SDS011;499;42.648;23.270;2023-04-25T05:08:46;5.50;;;4.10;;
1020;SDS011;499;42.648;23.270;2023-04-25T05:11:14;3.30;;;3.00;;
1020;SDS011;499;42.648;23.270;2023-04-25T05:13:41;4.50;;;3.70;;
1020;SDS011;499;42.648;23.270;2023-04-25T05:16:08;3.67;;;3.30;;
1020;SDS011;499;42.648;23.270;2023-04-25T05:18:35;3.87;;;2.87;;
1020;SDS011;499;42.648;23.270;2023-04-25T05:21:02;3.00;;;2.57;;
1020;SDS011;499;42.648;23.270;2023-04-25T05:23:30;3.50;;;3.07;;
1020;SDS011;499;42.648;23.270;2023-04-25T05:25:58;3.10;;;2.80;;
1020;SDS011;499;42.648;23.270;2023-04-25T05:28:25;3.10;;;2.80;;
1020;SDS011;499;42.648;23.270;2023-04-25T05:30:52;4.40;;;3.10;;
1020;SDS011;499;42.648;23.270;2023-04-25T05:33:20;3.57;;;2.23;;
1020;SDS011;499;42.648;23.270;2023-04-25T05:35:47;3.60;;;2.73;;
1020;SDS011;499;42.648;23.270;2023-04-25T05:38:14;3.90;;;3.47;;
1020;SDS011;499;42.648;23.270;2023-04-25T05:40:43;3.90;;;3.07;;
1020;SDS011;499;42.648;23.270;2023-04-25T05:43:10;3.17;;;2.80;;
1020;SDS011;499;42.648;23.270;2023-04-25T05:45:37;2.60;;;2.13;;
1020;SDS011;499;42.648;23.270;2023-04-25T05:48:04;3.00;;;2.70;;
1020;SDS011;499;42.648;23.270;2023-04-25T05:50:31;2.10;;;1.83;;
1020;SDS011;499;42.648;23.270;2023-04-25T05:52:58;2.17;;;1.80;;
1020;SDS011;499;42.648;23.270;2023-04-25T05:55:25;3.10;;;2.33;;
1020;SDS011;499;42.648;23.270;2023-04-25T05:57:53;3.37;;;2.57;;
1020;SDS011;499;42.648;23.270;2023-04-25T06:00:20;3.93;;;2.87;;
1020;SDS011;499;42.648;23.270;2023-04-25T06:02:48;3.23;;;2.93;;
1020;SDS011;499;42.648;23.270;2023-04-25T06:05:15;3.10;;;2.80;;
1020;SDS011;499;42.648;23.270;2023-04-25T06:07:42;5.17;;;3.20;;
1020;SDS011;499;42.648;23.270;2023-04-25T06:10:10;3.90;;;2.43;;
1020;SDS011;499;42.648;23.270;2023-04-25T06:12:37;4.80;;;3.20;;
1020;SDS011;499;42.648;23.270;2023-04-25T06:15:06;3.77;;;3.40;;
1020;SDS011;499;42.648;23.270;2023-04-25T06:17:34;3.10;;;2.70;;
1020;SDS011;499;42.648;23.270;2023-04-25T06:20:01;4.83;;;3.60;;
1020;SDS011;499;42.648;23.270;2023-04-25T06:22:28;4.43;;;3.37;;
1020;SDS011;499;42.648;23.270;2023-04-25T06:24:55;5.10;;;3.87;;
1020;SDS011;499;42.648;23.270;2023-04-25T06:27:24;3.63;;;3.10;;
1020;SDS011;499;42.648;23.270;2023-04-25T06:29:51;5.27;;;4.13;;
1020;SDS011;499;42.648;23.270;2023-04-25T06:32:19;3.77;;;3.00;;
1020;SDS011;499;42.648;23.270;2023-04-25T06:34:46;4.13;;;3.73;;
1020;SDS011;499;42.648;23.270;2023-04-25T06:37:13;3.40;;;2.73;;
1020;SDS011;499;42.648;23.270;2023-04-25T06:39:40;3.13;;;2.60;;
1020;SDS011;499;42.648;23.270;2023-04-25T06:42:07;4.40;;;3.43;;
1020;SDS011;499;42.648;23.270;2023-04-25T06:44:35;3.60;;;2.60;;
1020;SDS011;499;42.648;23.270;2023-04-25T06:47:02;3.40;;;2.40;;
1020;SDS011;499;42.648;23.270;2023-04-25T06:49:30;3.50;;;2.20;;
1020;SDS011;499;42.648;23.270;2023-04-25T06:51:57;2.73;;;2.40;;
1020;SDS011;499;42.648;23.270;2023-04-25T06:54:24;3.97;;;2.37;;
1020;SDS011;499;42.648;23.270;2023-04-25T06:56:52;4.27;;;3.30;;
1020;SDS011;499;42.648;23.270;2023-04-25T06:59:19;4.53;;;3.10;;
1020;SDS011;499;42.648;23.270;2023-04-25T07:01:46;4.20;;;2.97;;
1020;SDS011;499;42.648;23.270;2023-04-25T07:04:13;3.00;;;2.00;;
1020;SDS011;499;42.648;23.270;2023-04-25T07:06:41;4.10;;;3.27;;
1020;SDS011;499;42.648;23.270;2023-04-25T07:09:08;3.40;;;3.10;;
1020;SDS011;499;42.648;23.270;2023-04-25T07:11:36;3.87;;;2.90;;
1020;SDS011;499;42.648;23.270;2023-04-25T07:14:03;4.83;;;3.20;;
1020;SDS011;499;42.648;23.270;2023-04-25T07:16:30;4.20;;;3.20;;
1020;SDS011;499;42.648;23.270;2023-04-25T07:18:57;2.80;;;2.50;;
1020;SDS011;499;42.648;23.270;2023-04-25T07:21:25;3.60;;;2.90;;
1020;SDS011;499;42.648;23.270;2023-04-25T07:23:53;3.83;;;3.17;;
1020;SDS011;499;42.648;23.270;2023-04-25T07:26:20;2.23;;;1.90;;
1020;SDS011;499;42.648;23.270;2023-04-25T07:28:47;4.80;;;3.10;;
1020;SDS011;499;42.648;23.270;2023-04-25T07:31:16;3.90;;;2.90;;
1020;SDS011;499;42.648;23.270;2023-04-25T07:33:43;5.53;;;2.80;;
1020;SDS011;499;42.648;23.270;2023-04-25T07:36:11;2.47;;;2.27;;
1020;SDS011;499;42.648;23.270;2023-04-25T07:38:38;3.97;;;1.90;;
1020;SDS011;499;42.648;23.270;2023-04-25T07:41:06;3.60;;;2.60;;
1020;SDS011;499;42.648;23.270;2023-04-25T07:43:33;3.60;;;2.37;;
1020;SDS011;499;42.648;23.270;2023-04-25T07:46:00;3.03;;;2.30;;
1020;SDS011;499;42.648;23.270;2023-04-25T07:48:27;3.20;;;2.70;;
1020;SDS011;499;42.648;23.270;2023-04-25T07:50:54;2.57;;;2.23;;
1020;SDS011;499;42.648;23.270;2023-04-25T07:53:22;3.30;;;2.23;;
1020;SDS011;499;42.648;23.270;2023-04-25T07:55:49;2.97;;;2.50;;
1020;SDS011;499;42.648;23.270;2023-04-25T07:58:18;4.13;;;2.07;;
1020;SDS011;499;42.648;23.270;2023-04-25T08:00:47;1.73;;;1.43;;
1020;SDS011;499;42.648;23.270;2023-04-25T08:03:14;1.90;;;1.63;;
1020;SDS011;499;42.648;23.270;2023-04-25T08:05:42;1.73;;;1.27;;
1020;SDS011;499;42.648;23.270;2023-04-25T08:08:09;1.40;;;1.30;;
1020;SDS011;499;42.648;23.270;2023-04-25T08:10:36;1.10;;;0.63;;
1020;SDS011;499;42.648;23.270;2023-04-25T08:13:03;1.13;;;0.80;;
1020;SDS011;499;42.648;23.270;2023-04-25T08:15:31;1.07;;;0.60;;
1020;SDS011;499;42.648;23.270;2023-04-25T08:17:58;1.97;;;1.20;;
1020;SDS011;499;42.648;23.270;2023-04-25T08:20:25;2.80;;;1.23;;
1020;SDS011;499;42.648;23.270;2023-04-25T08:22:52;1.10;;;0.60;;
1020;SDS011;499;42.648;23.270;2023-04-25T08:25:19;1.20;;;0.77;;
1020;SDS011;499;42.648;23.270;2023-04-25T08:27:46;1.13;;;0.87;;
1020;SDS011;499;42.648;23.270;2023-04-25T08:30:14;2.13;;;1.20;;
1020;SDS011;499;42.648;23.270;2023-04-25T08:32:42;1.33;;;1.00;;
1020;SDS011;499;42.648;23.270;2023-04-25T08:35:09;1.20;;;0.80;;
1020;SDS011;499;42.648;23.270;2023-04-25T08:37:36;1.50;;;1.13;;
1020;SDS011;499;42.648;23.270;2023-04-25T08:40:04;1.13;;;0.73;;
1020;SDS011;499;42.648;23.270;2023-04-25T08:42:34;1.77;;;1.20;;
1020;SDS011;499;42.648;23.270;2023-04-25T08:45:03;2.23;;;1.20;;
1020;SDS011;499;42.648;23.270;2023-04-25T08:47:31;1.23;;;0.70;;
1020;SDS011;499;42.648;23.270;2023-04-25T08:50:03;0.90;;;0.70;;
1020;SDS011;499;42.648;23.270;2023-04-25T08:52:33;1.10;;;0.67;;
1020;SDS011;499;42.648;23.270;2023-04-25T08:55:03;1.30;;;0.90;;
1020;SDS011;499;42.648;23.270;2023-04-25T08:57:33;1.20;;;0.67;;
1020;SDS011;499;42.648;23.270;2023-04-25T09:00:01;1.20;;;0.93;;
1020;SDS011;499;42.648;23.270;2023-04-25T09:02:30;1.03;;;0.70;;
1020;SDS011;499;42.648;23.270;2023-04-25T09:04:57;1.40;;;0.87;;
1020;SDS011;499;42.648;23.270;2023-04-25T09:07:26;1.23;;;0.80;;
1020;SDS011;499;42.648;23.270;2023-04-25T09:09:53;1.20;;;0.80;;
1020;SDS011;499;42.648;23.270;2023-04-25T09:12:21;1.10;;;0.63;;
1020;SDS011;499;42.648;23.270;2023-04-25T09:15:01;1.07;;;0.67;;
1020;SDS011;499;42.648;23.270;2023-04-25T09:17:30;1.10;;;0.70;;
1020;SDS011;499;42.648;23.270;2023-04-25T09:20:04;1.60;;;0.80;;
1020;SDS011;499;42.648;23.270;2023-04-25T09:22:35;1.30;;;0.80;;
1020;SDS011;499;42.648;23.270;2023-04-25T09:25:02;1.77;;;1.20;;
1020;SDS011;499;42.648;23.270;2023-04-25T09:27:33;1.43;;;0.80;;
1020;SDS011;499;42.648;23.270;2023-04-25T09:30:00;1.20;;;0.73;;
1020;SDS011;499;42.648;23.270;2023-04-25T09:32:28;1.30;;;1.10;;
1020;SDS011;499;42.648;23.270;2023-04-25T09:34:56;1.77;;;0.77;;
1020;SDS011;499;42.648;23.270;2023-04-25T09:37:25;1.20;;;0.60;;
1020;SDS011;499;42.648;23.270;2023-04-25T09:39:55;1.77;;;1.00;;
1020;SDS011;499;42.648;23.270;2023-04-25T09:42:24;1.03;;;0.60;;
1020;SDS011;499;42.648;23.270;2023-04-25T09:44:54;3.00;;;1.37;;
1020;SDS011;499;42.648;23.270;2023-04-25T09:47:22;1.33;;;0.83;;
1020;SDS011;499;42.648;23.270;2023-04-25T09:49:50;1.20;;;0.70;;
1020;SDS011;499;42.648;23.270;2023-04-25T09:52:18;1.00;;;0.60;;
1020;SDS011;499;42.648;23.270;2023-04-25T09:54:47;1.20;;;0.83;;
1020;SDS011;499;42.648;23.270;2023-04-25T09:57:17;2.80;;;2.10;;
1020;SDS011;499;42.648;23.270;2023-04-25T09:59:45;1.40;;;0.80;;
1020;SDS011;499;42.648;23.270;2023-04-25T10:02:14;1.00;;;0.57;;
1020;SDS011;499;42.648;23.270;2023-04-25T10:04:44;1.20;;;0.70;;
1020;SDS011;499;42.648;23.270;2023-04-25T10:07:14;1.27;;;0.60;;
1020;SDS011;499;42.648;23.270;2023-04-25T10:09:41;0.93;;;0.50;;
1020;SDS011;499;42.648;23.270;2023-04-25T10:12:10;1.00;;;0.60;;
1020;SDS011;499;42.648;23.270;2023-04-25T10:14:39;0.90;;;0.50;;
1020;SDS011;499;42.648;23.270;2023-04-25T10:17:06;1.30;;;0.77;;
1020;SDS011;499;42.648;23.270;2023-04-25T10:19:36;1.03;;;0.50;;
1020;SDS011;499;42.648;23.270;2023-04-25T10:22:05;1.30;;;1.00;;
1020;SDS011;499;42.648;23.270;2023-04-25T10:24:38;0.97;;;0.60;;
1020;SDS011;499;42.648;23.270;2023-04-25T10:27:06;1.10;;;0.53;;
1020;SDS011;499;42.648;23.270;2023-04-25T10:29:33;1.00;;;0.57;;
1020;SDS011;499;42.648;23.270;2023-04-25T10:32:03;1.00;;;0.40;;
1020;SDS011;499;42.648;23.270;2023-04-25T10:34:40;0.90;;;0.40;;
1020;SDS011;499;42.648;23.270;2023-04-25T10:37:08;1.00;;;0.40;;
1020;SDS011;499;42.648;23.270;2023-04-25T10:39:37;1.07;;;0.50;;
1020;SDS011;499;42.648;23.270;2023-04-25T10:42:06;1.00;;;0.60;;
1020;SDS011;499;42.648;23.270;2023-04-25T10:44:34;1.20;;;0.87;;
1020;SDS011;499;42.648;23.270;2023-04-25T10:47:05;1.07;;;0.60;;
1020;SDS011;499;42.648;23.270;2023-04-25T10:49:34;1.00;;;0.50;;
1020;SDS011;499;42.648;23.270;2023-04-25T10:54:52;0.90;;;0.50;;
1020;SDS011;499;42.648;23.270;2023-04-25T10:57:26;1.00;;;0.57;;
1020;SDS011;499;42.648;23.270;2023-04-25T11:00:10;1.33;;;0.70;;
1020;SDS011;499;42.648;23.270;2023-04-25T11:02:45;1.10;;;0.63;;
1020;SDS011;499;42.648;23.270;2023-04-25T11:05:19;0.90;;;0.40;;
1020;SDS011;499;42.648;23.270;2023-04-25T11:07:52;1.10;;;0.50;;
1020;SDS011;499;42.648;23.270;2023-04-25T11:10:24;1.30;;;0.50;;
1020;SDS011;499;42.648;23.270;2023-04-25T11:12:52;1.00;;;0.60;;
1020;SDS011;499;42.648;23.270;2023-04-25T11:15:19;1.67;;;0.80;;
1020;SDS011;499;42.648;23.270;2023-04-25T11:17:47;1.00;;;0.50;;
1020;SDS011;499;42.648;23.270;2023-04-25T11:20:17;1.00;;;0.50;;
1020;SDS011;499;42.648;23.270;2023-04-25T11:22:44;1.00;;;0.50;;
1020;SDS011;499;42.648;23.270;2023-04-25T11:25:13;1.10;;;0.60;;
1020;SDS011;499;42.648;23.270;2023-04-25T11:27:49;1.00;;;0.40;;
1020;SDS011;499;42.648;23.270;2023-04-25T11:30:17;1.00;;;0.50;;
1020;SDS011;499;42.648;23.270;2023-04-25T11:32:45;2.47;;;0.80;;
1020;SDS011;499;42.648;23.270;2023-04-25T11:35:14;1.00;;;0.40;;
1020;SDS011;499;42.648;23.270;2023-04-25T11:37:41;1.10;;;0.57;;
1020;SDS011;499;42.648;23.270;2023-04-25T11:40:08;1.00;;;0.60;;
1020;SDS011;499;42.648;23.270;2023-04-25T11:42:36;1.00;;;0.60;;
1020;SDS011;499;42.648;23.270;2023-04-25T11:45:04;0.90;;;0.50;;
1020;SDS011;499;42.648;23.270;2023-04-25T11:47:33;2.60;;;0.60;;
1020;SDS011;499;42.648;23.270;2023-04-25T11:50:00;1.10;;;0.70;;
1020;SDS011;499;42.648;23.270;2023-04-25T11:52:37;1.00;;;0.63;;
1020;SDS011;499;42.648;23.270;2023-04-25T11:55:05;1.00;;;0.60;;
1020;SDS011;499;42.648;23.270;2023-04-25T11:57:33;1.20;;;0.80;;
1020;SDS011;499;42.648;23.270;2023-04-25T12:00:08;1.00;;;0.57;;
1020;SDS011;499;42.648;23.270;2023-04-25T12:02:40;0.90;;;0.50;;
1020;SDS011;499;42.648;23.270;2023-04-25T12:05:08;1.03;;;0.70;;
1020;SDS011;499;42.648;23.270;2023-04-25T12:07:37;1.00;;;0.67;;
1020;SDS011;499;42.648;23.270;2023-04-25T12:10:06;1.20;;;0.60;;
1020;SDS011;499;42.648;23.270;2023-04-25T12:12:34;1.00;;;0.60;;
1020;SDS011;499;42.648;23.270;2023-04-25T12:15:12;1.00;;;0.53;;
1020;SDS011;499;42.648;23.270;2023-04-25T12:17:44;1.53;;;0.73;;
1020;SDS011;499;42.648;23.270;2023-04-25T12:20:12;1.50;;;0.80;;
1020;SDS011;499;42.648;23.270;2023-04-25T12:22:41;1.00;;;0.53;;
1020;SDS011;499;42.648;23.270;2023-04-25T12:25:12;1.00;;;0.50;;
1020;SDS011;499;42.648;23.270;2023-04-25T12:27:39;1.00;;;0.43;;
1020;SDS011;499;42.648;23.270;2023-04-25T12:30:09;1.20;;;0.60;;
1020;SDS011;499;42.648;23.270;2023-04-25T12:32:36;0.90;;;0.50;;
1020;SDS011;499;42.648;23.270;2023-04-25T12:35:04;1.00;;;0.50;;
1020;SDS011;499;42.648;23.270;2023-04-25T12:37:31;0.90;;;0.47;;
1020;SDS011;499;42.648;23.270;2023-04-25T12:40:00;1.00;;;0.57;;
1020;SDS011;499;42.648;23.270;2023-04-25T12:42:29;1.00;;;0.60;;
1020;SDS011;499;42.648;23.270;2023-04-25T12:44:56;0.90;;;0.60;;
1020;SDS011;499;42.648;23.270;2023-04-25T12:47:23;1.00;;;0.60;;
1020;SDS011;499;42.648;23.270;2023-04-25T12:49:50;1.40;;;0.70;;
1020;SDS011;499;42.648;23.270;2023-04-25T12:52:17;1.00;;;0.57;;
1020;SDS011;499;42.648;23.270;2023-04-25T12:54:44;1.63;;;1.00;;
1020;SDS011;499;42.648;23.270;2023-04-25T12:57:12;0.90;;;0.60;;
1020;SDS011;499;42.648;23.270;2023-04-25T12:59:39;1.00;;;0.60;;
1020;SDS011;499;42.648;23.270;2023-04-25T13:02:06;1.00;;;0.60;;
1020;SDS011;499;42.648;23.270;2023-04-25T13:04:33;1.00;;;0.60;;
1020;SDS011;499;42.648;23.270;2023-04-25T13:07:01;1.20;;;0.87;;
1020;SDS011;499;42.648;23.270;2023-04-25T13:09:28;1.00;;;0.70;;
1020;SDS011;499;42.648;23.270;2023-04-25T13:11:55;1.10;;;0.93;;
1020;SDS011;499;42.648;23.270;2023-04-25T13:14:24;1.70;;;1.00;;
1020;SDS011;499;42.648;23.270;2023-04-25T13:16:51;1.20;;;0.90;;
1020;SDS011;499;42.648;23.270;2023-04-25T13:19:19;0.97;;;0.63;;
1020;SDS011;499;42.648;23.270;2023-04-25T13:21:46;1.00;;;0.80;;
1020;SDS011;499;42.648;23.270;2023-04-25T13:24:13;0.90;;;0.70;;
1020;SDS011;499;42.648;23.270;2023-04-25T13:26:40;1.20;;;0.80;;
1020;SDS011;499;42.648;23.270;2023-04-25T13:29:08;0.90;;;0.70;;
1020;SDS011;499;42.648;23.270;2023-04-25T13:31:36;1.43;;;1.00;;
1020;SDS011;499;42.648;23.270;2023-04-25T13:34:03;1.07;;;0.80;;
1020;SDS011;499;42.648;23.270;2023-04-25T13:36:30;1.40;;;1.03;;
1020;SDS011;499;42.648;23.270;2023-04-25T13:38:58;1.03;;;0.80;;
1020;SDS011;499;42.648;23.270;2023-04-25T13:41:25;0.90;;;0.80;;
1020;SDS011;499;42.648;23.270;2023-04-25T13:43:52;1.10;;;0.90;;
1020;SDS011;499;42.648;23.270;2023-04-25T13:46:19;1.10;;;0.70;;
1020;SDS011;499;42.648;23.270;2023-04-25T13:48:48;1.20;;;0.60;;
1020;SDS011;499;42.648;23.270;2023-04-25T13:51:15;1.40;;;1.00;;
1020;SDS011;499;42.648;23.270;2023-04-25T13:53:43;0.90;;;0.70;;
1020;SDS011;499;42.648;23.270;2023-04-25T13:56:10;1.20;;;0.80;;
1020;SDS011;499;42.648;23.270;2023-04-25T13:58:37;1.00;;;0.80;;
1020;SDS011;499;42.648;23.270;2023-04-25T14:01:05;1.10;;;0.70;;
1020;SDS011;499;42.648;23.270;2023-04-25T14:03:32;1.00;;;0.80;;
1020;SDS011;499;42.648;23.270;2023-04-25T14:06:01;1.07;;;0.73;;
1020;SDS011;499;42.648;23.270;2023-04-25T14:08:28;1.73;;;0.97;;
1020;SDS011;499;42.648;23.270;2023-04-25T14:10:55;2.43;;;1.67;;
1020;SDS011;499;42.648;23.270;2023-04-25T14:13:22;1.67;;;1.07;;
1020;SDS011;499;42.648;23.270;2023-04-25T14:15:50;1.33;;;1.00;;
1020;SDS011;499;42.648;23.270;2023-04-25T14:18:17;1.83;;;1.50;;
1020;SDS011;499;42.648;23.270;2023-04-25T14:20:44;1.50;;;1.17;;
1020;SDS011;499;42.648;23.270;2023-04-25T14:23:13;1.20;;;1.00;;
1020;SDS011;499;42.648;23.270;2023-04-25T14:25:40;1.33;;;0.90;;
1020;SDS011;499;42.648;23.270;2023-04-25T14:28:08;1.30;;;1.00;;
1020;SDS011;499;42.648;23.270;2023-04-25T14:30:36;1.30;;;0.70;;
1020;SDS011;499;42.648;23.270;2023-04-25T14:33:03;1.27;;;0.80;;
1020;SDS011;499;42.648;23.270;2023-04-25T14:35:30;1.30;;;0.97;;
1020;SDS011;499;42.648;23.270;2023-04-25T14:37:57;1.20;;;0.80;;
1020;SDS011;499;42.648;23.270;2023-04-25T14:40:25;0.90;;;0.70;;
1020;SDS011;499;42.648;23.270;2023-04-25T14:42:53;2.20;;;1.13;;
1020;SDS011;499;42.648;23.270;2023-04-25T14:45:20;1.00;;;0.70;;
1020;SDS011;499;42.648;23.270;2023-04-25T14:47:47;2.00;;;1.63;;
1020;SDS011;499;42.648;23.270;2023-04-25T14:50:14;1.20;;;1.00;;
1020;SDS011;499;42.648;23.270;2023-04-25T14:52:41;1.27;;;1.10;;
1020;SDS011;499;42.648;23.270;2023-04-25T14:55:10;1.37;;;1.27;;
1020;SDS011;499;42.648;23.270;2023-04-25T14:57:38;1.37;;;1.27;;
1020;SDS011;499;42.648;23.270;2023-04-25T15:00:06;1.00;;;0.70;;
1020;SDS011;499;42.648;23.270;2023-04-25T15:02:34;1.70;;;1.00;;
1020;SDS011;499;42.648;23.270;2023-04-25T15:05:02;1.63;;;1.10;;
1020;SDS011;499;42.648;23.270;2023-04-25T15:07:29;1.77;;;1.10;;
1020;SDS011;499;42.648;23.270;2023-04-25T15:09:56;1.63;;;0.70;;
1020;SDS011;499;42.648;23.270;2023-04-25T15:12:23;1.63;;;0.80;;
1020;SDS011;499;42.648;23.270;2023-04-25T15:14:54;2.00;;;1.37;;
1020;SDS011;499;42.648;23.270;2023-04-25T15:17:21;1.20;;;0.90;;
1020;SDS011;499;42.648;23.270;2023-04-25T15:19:48;1.10;;;0.90;;
1020;SDS011;499;42.648;23.270;2023-04-25T15:22:15;1.50;;;0.90;;